createdAt,value
2022-12-13T00:02:18.064Z,14.43
2022-12-13T00:07:20.025Z,13.33
2022-12-13T00:12:21.819Z,13.13
2022-12-13T00:17:23.966Z,12.60
2022-12-13T00:22:25.763Z,12.47
2022-12-13T00:27:27.701Z,10.33
2022-12-13T00:32:29.643Z,12.87
2022-12-13T00:37:31.406Z,12.03
2022-12-13T00:42:36.135Z,13.17
2022-12-13T00:47:38.098Z,13.10
2022-12-13T00:52:40.031Z,11.00
2022-12-13T00:57:41.834Z,13.43
2022-12-13T01:02:43.957Z,12.43
2022-12-13T01:07:47.799Z,12.37
2022-12-13T01:12:49.575Z,12.87
2022-12-13T01:17:51.460Z,12.67
2022-12-13T01:22:53.356Z,10.17
2022-12-13T01:27:55.954Z,10.87
2022-12-13T01:32:57.678Z,11.70
2022-12-13T01:37:59.604Z,11.73
2022-12-13T01:43:02.297Z,11.83
2022-12-13T01:48:22.949Z,12.37
2022-12-13T01:53:28.991Z,12.40
2022-12-13T01:58:31.700Z,11.63
2022-12-13T02:03:34.275Z,12.40
2022-12-13T02:08:38.809Z,11.13
2022-12-13T02:13:40.892Z,11.93
2022-12-13T02:19:07.231Z,12.03
2022-12-13T02:24:37.042Z,12.13
2022-12-13T02:30:17.110Z,11.33
2022-12-13T02:35:23.495Z,12.37
2022-12-13T02:40:51.637Z,12.23
2022-12-13T02:46:00.935Z,10.63
2022-12-13T02:51:05.202Z,10.40
2022-12-13T02:56:07.236Z,9.80
2022-12-13T03:01:29.097Z,12.60
2022-12-13T03:07:00.375Z,10.57
2022-12-13T03:12:33.031Z,10.27
2022-12-13T03:17:42.504Z,11.07
2022-12-13T03:22:44.660Z,10.77
2022-12-13T03:27:46.764Z,10.23
2022-12-13T03:32:48.737Z,10.33
2022-12-13T03:37:50.865Z,12.10
2022-12-13T03:42:52.657Z,10.00
2022-12-13T03:47:54.452Z,9.87
2022-12-13T03:53:03.804Z,10.00
2022-12-13T03:58:07.970Z,12.37
2022-12-13T04:03:10.605Z,10.50
2022-12-13T04:08:22.505Z,10.03
2022-12-13T04:13:33.562Z,11.23
2022-12-13T04:18:35.373Z,10.70
2022-12-13T04:23:37.247Z,9.57
2022-12-13T04:28:39.089Z,10.97
2022-12-13T04:33:40.855Z,10.60
2022-12-13T04:38:42.854Z,11.23
2022-12-13T04:43:50.062Z,9.17
2022-12-13T04:48:51.811Z,8.90
2022-12-13T04:53:53.857Z,10.00
2022-12-13T04:58:55.956Z,8.07
2022-12-13T05:03:57.936Z,8.37
2022-12-13T05:09:01.169Z,8.67
2022-12-13T05:14:03.356Z,7.80
2022-12-13T05:19:05.111Z,9.07
2022-12-13T05:24:07.572Z,7.73
2022-12-13T05:29:09.581Z,9.50
2022-12-13T05:34:11.344Z,12.60
2022-12-13T05:39:28.540Z,7.70
2022-12-13T05:44:32.576Z,8.17
2022-12-13T05:49:34.538Z,7.80
2022-12-13T05:54:36.298Z,8.53
2022-12-13T05:59:38.217Z,9.27
2022-12-13T06:04:40.186Z,9.47
2022-12-13T06:09:42.304Z,9.13
2022-12-13T06:14:44.059Z,8.67
2022-12-13T06:19:46.473Z,8.37
2022-12-13T06:24:48.365Z,10.67
2022-12-13T06:29:50.175Z,11.23
2022-12-13T06:34:51.903Z,10.40
2022-12-13T06:39:53.651Z,9.83
2022-12-13T06:44:55.712Z,8.17
2022-12-13T06:49:58.294Z,8.50
2022-12-13T06:55:07.947Z,9.43
2022-12-13T07:00:10.830Z,8.60
2022-12-13T07:05:12.645Z,8.70
2022-12-13T07:10:22.028Z,7.30
2022-12-13T07:15:24.759Z,8.97
2022-12-13T07:20:26.658Z,8.90
2022-12-13T07:25:29.629Z,9.00
2022-12-13T07:30:41.521Z,9.57
2022-12-13T07:35:43.985Z,8.70
2022-12-13T07:40:45.793Z,9.23
2022-12-13T07:45:47.865Z,8.97
2022-12-13T07:50:54.732Z,10.13
2022-12-13T07:55:56.920Z,8.77
2022-12-13T08:01:08.044Z,10.23
2022-12-13T08:06:11.859Z,9.33
2022-12-13T08:11:17.543Z,9.00
2022-12-13T08:16:28.281Z,10.17
2022-12-13T08:21:57.424Z,12.80
2022-12-13T08:27:03.215Z,11.47
2022-12-13T08:32:08.792Z,11.87
2022-12-13T08:37:10.678Z,11.93
2022-12-13T08:42:18.187Z,13.90
2022-12-13T08:47:26.436Z,12.57
2022-12-13T08:52:28.575Z,14.13
2022-12-13T08:57:30.413Z,13.83
2022-12-13T09:02:37.755Z,13.47
2022-12-13T09:07:41.224Z,13.53
2022-12-13T09:12:43.161Z,14.20
2022-12-13T09:17:44.951Z,13.67
2022-12-13T09:23:01.812Z,11.47
2022-12-13T09:28:08.535Z,12.03
2022-12-13T09:33:28.531Z,11.60
2022-12-13T09:38:35.756Z,13.47
2022-12-13T09:43:42.933Z,13.47
2022-12-13T09:48:48.366Z,12.50
2022-12-13T09:53:52.800Z,14.67
2022-12-13T09:58:59.343Z,13.33
2022-12-13T10:04:01.447Z,16.87
2022-12-13T10:09:08.491Z,18.07
2022-12-13T10:14:14.388Z,22.00
2022-12-13T10:19:28.399Z,21.50
2022-12-13T10:25:07.666Z,21.53
2022-12-13T10:30:12.631Z,18.83
2022-12-13T10:35:27.594Z,15.47
2022-12-13T10:40:36.237Z,14.83
2022-12-13T10:45:38.651Z,16.13
2022-12-13T10:50:40.642Z,15.17
2022-12-13T10:55:42.827Z,15.10
2022-12-13T11:00:46.717Z,14.03
2022-12-13T11:06:03.235Z,14.60
2022-12-13T11:11:07.812Z,13.30
2022-12-13T11:16:23.983Z,13.40
2022-12-13T11:21:28.840Z,12.97
2022-12-13T11:26:33.764Z,12.07
2022-12-13T11:31:54.173Z,12.67
2022-12-13T11:37:15.831Z,11.30
2022-12-13T11:42:50.275Z,13.20
2022-12-13T11:48:21.319Z,12.93
2022-12-13T11:53:49.959Z,12.67
2022-12-13T11:59:03.579Z,13.13
2022-12-13T12:04:19.013Z,12.33
2022-12-13T12:09:24.070Z,12.43
2022-12-13T12:14:45.851Z,11.70
2022-12-13T12:19:52.832Z,11.03
2022-12-13T12:25:13.048Z,11.63
2022-12-13T12:31:03.015Z,11.53
2022-12-13T12:36:16.362Z,12.00
2022-12-13T12:41:30.238Z,12.37
2022-12-13T12:47:01.557Z,11.17
2022-12-13T12:52:08.789Z,10.97
2022-12-13T12:57:32.440Z,12.13
2022-12-13T13:02:43.212Z,9.73
2022-12-13T13:07:51.156Z,12.17
2022-12-13T13:13:11.760Z,11.20
2022-12-13T13:18:47.254Z,10.97
2022-12-13T13:24:09.214Z,9.27
2022-12-13T13:29:27.961Z,10.30
2022-12-13T13:34:36.534Z,11.07
2022-12-13T13:40:02.117Z,12.00
2022-12-13T13:45:26.951Z,11.30
2022-12-13T13:50:58.871Z,10.87
2022-12-13T13:56:27.586Z,10.27
2022-12-13T14:02:03.698Z,11.13
2022-12-13T14:07:27.652Z,11.53
2022-12-13T14:13:23.846Z,11.63
2022-12-13T14:18:59.215Z,11.03
2022-12-13T14:24:39.930Z,10.70
2022-12-13T14:29:57.668Z,10.93
2022-12-13T14:35:25.050Z,11.60
2022-12-13T14:40:32.927Z,11.00
2022-12-13T14:45:38.257Z,11.10
2022-12-13T14:50:43.770Z,12.60
2022-12-13T14:56:03.460Z,13.77
2022-12-13T15:01:07.198Z,14.37
2022-12-13T15:06:09.029Z,13.57
2022-12-13T15:11:10.942Z,14.30
2022-12-13T15:16:25.720Z,13.97
2022-12-13T15:21:31.444Z,13.57
2022-12-13T15:26:34.323Z,13.43
2022-12-13T15:31:36.216Z,14.27
2022-12-13T15:36:38.595Z,15.93
2022-12-13T15:41:48.599Z,17.77
2022-12-13T15:46:53.146Z,19.57
2022-12-13T15:52:01.894Z,19.87
2022-12-13T15:57:17.473Z,18.50
2022-12-13T16:02:23.412Z,18.97
2022-12-13T16:07:39.702Z,19.23
2022-12-13T16:12:50.872Z,18.73
2022-12-13T16:18:33.023Z,17.53
2022-12-13T16:23:34.987Z,15.60
2022-12-13T16:28:36.882Z,17.13
2022-12-13T16:33:38.976Z,19.67
2022-12-13T16:38:40.767Z,18.70
2022-12-13T16:43:55.884Z,16.87
2022-12-13T16:48:57.855Z,18.33
2022-12-13T16:54:00.088Z,17.77
2022-12-13T16:59:01.853Z,14.83
2022-12-13T17:04:10.386Z,15.63
2022-12-13T17:09:14.692Z,16.07
2022-12-13T17:14:16.644Z,15.37
2022-12-13T17:19:18.682Z,16.10
2022-12-13T17:24:20.487Z,14.77
2022-12-13T17:29:24.575Z,18.10
2022-12-13T17:34:27.697Z,16.67
2022-12-13T17:39:29.496Z,17.10
2022-12-13T17:44:31.558Z,16.80
2022-12-13T17:49:33.511Z,17.03
2022-12-13T17:54:35.348Z,14.60
2022-12-13T17:59:43.076Z,14.53
2022-12-13T18:04:45.168Z,16.23
2022-12-13T18:09:47.213Z,14.60
2022-12-13T18:14:50.820Z,15.57
2022-12-13T18:19:52.880Z,14.70
2022-12-13T18:24:54.924Z,14.70
2022-12-13T18:29:56.856Z,14.73
2022-12-13T18:34:59.222Z,14.27
2022-12-13T18:40:01.160Z,15.33
2022-12-13T18:45:04.050Z,13.57
2022-12-13T18:50:06.571Z,15.60
2022-12-13T18:55:08.793Z,14.47
2022-12-13T19:00:11.975Z,14.83
2022-12-13T19:05:13.989Z,13.30
2022-12-13T19:10:15.804Z,14.63
2022-12-13T19:15:18.831Z,14.33
2022-12-13T19:20:21.205Z,12.40
2022-12-13T19:25:23.018Z,12.97
2022-12-13T19:30:24.807Z,12.30
2022-12-13T19:35:26.741Z,12.17
2022-12-13T19:40:29.116Z,12.20
2022-12-13T19:45:30.888Z,11.87
2022-12-13T19:50:32.867Z,11.83
2022-12-13T19:55:34.942Z,13.10
2022-12-13T20:00:37.511Z,11.20
2022-12-13T20:05:45.360Z,12.23
2022-12-13T20:10:47.628Z,12.63
2022-12-13T20:15:50.152Z,11.97
2022-12-13T20:21:16.113Z,14.23
2022-12-13T20:26:31.487Z,12.40
2022-12-13T20:31:37.288Z,11.07
2022-12-13T20:36:39.760Z,11.53
2022-12-13T20:41:41.679Z,12.70
2022-12-13T20:46:43.749Z,11.90
2022-12-13T20:51:45.539Z,12.70
2022-12-13T20:56:47.528Z,12.60
2022-12-13T21:01:49.843Z,10.97
2022-12-13T21:06:51.834Z,10.53
2022-12-13T21:11:53.799Z,11.43
2022-12-13T21:17:00.959Z,10.30
2022-12-13T21:22:02.767Z,12.33
2022-12-13T21:27:04.530Z,11.87
2022-12-13T21:32:06.407Z,12.30
2022-12-13T21:37:08.510Z,13.83
2022-12-13T21:42:10.463Z,10.70
2022-12-13T21:47:13.340Z,10.07
2022-12-13T21:52:15.549Z,10.77
2022-12-13T21:57:36.173Z,12.63
2022-12-13T22:02:38.134Z,13.43
2022-12-13T22:07:40.507Z,13.40
2022-12-13T22:12:42.270Z,12.23
2022-12-13T22:17:44.072Z,14.43
2022-12-13T22:22:48.413Z,13.10
2022-12-13T22:27:50.269Z,13.10
2022-12-13T22:32:53.044Z,12.40
2022-12-13T22:37:58.798Z,13.20
2022-12-13T22:43:03.105Z,13.57
2022-12-13T22:48:05.487Z,12.47
2022-12-13T22:53:07.272Z,12.37
2022-12-13T22:58:09.084Z,13.23
2022-12-13T23:03:11.456Z,12.33
2022-12-13T23:08:13.203Z,12.90
2022-12-13T23:13:15.017Z,11.73
2022-12-13T23:18:16.911Z,13.70
2022-12-13T23:23:18.710Z,11.93
2022-12-13T23:28:20.500Z,10.63
2022-12-13T23:33:22.295Z,11.77
2022-12-13T23:38:25.324Z,11.07
2022-12-13T23:43:29.461Z,10.77
2022-12-13T23:48:31.687Z,10.10
2022-12-13T23:53:34.339Z,9.97
2022-12-13T23:58:37.682Z,10.27
